createdAt,value
2023-04-23T00:00:54.924Z,4.63
2023-04-23T00:03:25.250Z,4.77
2023-04-23T00:05:54.465Z,3.90
2023-04-23T00:08:23.550Z,4.00
2023-04-23T00:10:51.840Z,4.83
2023-04-23T00:13:20.050Z,4.23
2023-04-23T00:15:48.300Z,4.03
2023-04-23T00:18:17.001Z,4.83
2023-04-23T00:20:46.280Z,4.30
2023-04-23T00:23:14.029Z,4.37
2023-04-23T00:25:41.831Z,4.07
2023-04-23T00:28:09.606Z,4.17
2023-04-23T00:30:37.341Z,3.97
2023-04-23T00:33:05.375Z,4.17
2023-04-23T00:35:33.103Z,4.13
2023-04-23T00:38:02.188Z,4.53
2023-04-23T00:40:30.010Z,4.23
2023-04-23T00:42:58.846Z,4.60
2023-04-23T00:45:26.833Z,4.60
2023-04-23T00:47:55.209Z,3.90
2023-04-23T00:50:23.058Z,4.40
2023-04-23T00:52:50.828Z,4.53
2023-04-23T00:55:21.355Z,4.40
2023-04-23T00:57:49.986Z,5.07
2023-04-23T01:00:18.877Z,4.27
2023-04-23T01:02:48.881Z,4.40
2023-04-23T01:05:18.646Z,4.77
2023-04-23T01:07:47.997Z,5.00
2023-04-23T01:10:15.866Z,4.67
2023-04-23T01:12:45.126Z,4.60
2023-04-23T01:15:13.057Z,4.77
2023-04-23T01:17:41.247Z,4.90
2023-04-23T01:20:10.381Z,5.03
2023-04-23T01:22:39.897Z,4.80
2023-04-23T01:25:10.260Z,5.23
2023-04-23T01:27:38.746Z,4.40
2023-04-23T01:30:07.998Z,4.63
2023-04-23T01:32:36.118Z,5.27
2023-04-23T01:35:04.642Z,4.23
2023-04-23T01:37:33.188Z,4.80
2023-04-23T01:40:02.497Z,4.83
2023-04-23T01:42:30.341Z,5.30
2023-04-23T01:44:59.198Z,4.93
2023-04-23T01:47:27.565Z,5.43
2023-04-23T01:49:55.728Z,7.40
2023-04-23T01:52:23.433Z,7.53
2023-04-23T01:54:51.736Z,9.13
2023-04-23T01:57:24.152Z,9.20
2023-04-23T01:59:52.030Z,9.93
2023-04-23T02:02:21.035Z,10.27
2023-04-23T02:04:49.283Z,10.53
2023-04-23T02:07:17.097Z,11.50
2023-04-23T02:09:44.868Z,11.87
2023-04-23T02:12:12.625Z,12.73
2023-04-23T02:14:42.113Z,12.67
2023-04-23T02:17:10.043Z,13.80
2023-04-23T02:19:37.766Z,13.90
2023-04-23T02:22:05.771Z,12.57
2023-04-23T02:24:34.733Z,13.67
2023-04-23T02:27:03.440Z,13.20
2023-04-23T02:29:31.392Z,13.43
2023-04-23T02:32:00.655Z,13.23
2023-04-23T02:34:28.419Z,13.77
2023-04-23T02:36:56.289Z,13.90
2023-04-23T02:39:23.996Z,14.10
2023-04-23T02:41:51.916Z,14.53
2023-04-23T02:44:19.670Z,15.83
2023-04-23T02:46:47.447Z,15.17
2023-04-23T02:49:16.832Z,16.47
2023-04-23T02:51:44.792Z,15.00
2023-04-23T02:54:12.664Z,15.53
2023-04-23T02:56:40.474Z,15.77
2023-04-23T02:59:08.596Z,16.40
2023-04-23T03:01:36.435Z,17.17
2023-04-23T03:04:05.011Z,16.27
2023-04-23T03:06:35.715Z,16.57
2023-04-23T03:09:03.972Z,15.77
2023-04-23T03:11:31.785Z,16.13
2023-04-23T03:13:59.534Z,17.10
2023-04-23T03:16:28.996Z,18.40
2023-04-23T03:18:57.103Z,17.43
2023-04-23T03:21:24.832Z,18.53
2023-04-23T03:23:54.007Z,17.67
2023-04-23T03:26:21.741Z,18.83
2023-04-23T03:28:49.411Z,18.67
2023-04-23T03:31:17.218Z,18.80
2023-04-23T03:33:45.013Z,19.07
2023-04-23T03:36:12.830Z,18.47
2023-04-23T03:38:40.618Z,18.80
2023-04-23T03:41:09.799Z,19.07
2023-04-23T03:43:37.507Z,19.83
2023-04-23T03:46:05.689Z,19.63
2023-04-23T03:48:33.563Z,19.27
2023-04-23T03:51:01.511Z,19.47
2023-04-23T03:53:29.266Z,20.03
2023-04-23T03:55:57.001Z,20.47
2023-04-23T03:58:26.142Z,21.63
2023-04-23T04:00:54.408Z,21.23
2023-04-23T04:03:22.321Z,21.60
2023-04-23T04:05:50.256Z,20.80
2023-04-23T04:08:18.152Z,21.37
2023-04-23T04:10:46.067Z,20.43
2023-04-23T04:13:15.959Z,20.60
2023-04-23T04:15:45.091Z,20.33
2023-04-23T04:18:12.826Z,20.47
2023-04-23T04:20:43.587Z,21.43
2023-04-23T04:23:11.352Z,21.87
2023-04-23T04:25:40.288Z,20.57
2023-04-23T04:28:09.361Z,22.53
2023-04-23T04:30:38.235Z,21.87
2023-04-23T04:33:07.355Z,21.33
2023-04-23T04:35:35.053Z,21.87
2023-04-23T04:38:03.223Z,22.77
2023-04-23T04:40:31.527Z,23.97
2023-04-23T04:43:00.104Z,23.60
2023-04-23T04:45:27.952Z,26.20
2023-04-23T04:47:55.859Z,24.23
2023-04-23T04:50:25.478Z,26.47
2023-04-23T04:52:53.243Z,24.87
2023-04-23T04:55:21.024Z,23.73
2023-04-23T04:57:48.732Z,24.73
2023-04-23T05:00:25.473Z,24.80
2023-04-23T05:02:53.486Z,24.13
2023-04-23T05:05:23.409Z,25.03
2023-04-23T05:07:54.210Z,23.07
2023-04-23T05:10:22.230Z,22.77
2023-04-23T05:12:51.762Z,23.33
2023-04-23T05:15:19.552Z,25.23
2023-04-23T05:17:47.306Z,22.03
2023-04-23T05:20:15.270Z,23.60
2023-04-23T05:22:43.621Z,24.23
2023-04-23T05:25:13.095Z,25.07
2023-04-23T05:27:41.464Z,23.87
2023-04-23T05:30:10.907Z,24.40
2023-04-23T05:32:39.307Z,24.13
2023-04-23T05:35:08.074Z,24.53
2023-04-23T05:37:36.019Z,23.60
2023-04-23T05:40:05.313Z,25.63
2023-04-23T05:42:35.706Z,25.00
2023-04-23T05:45:03.627Z,25.77
2023-04-23T05:47:31.439Z,26.13
2023-04-23T05:49:59.269Z,26.50
2023-04-23T05:52:27.009Z,25.53
2023-04-23T05:54:54.807Z,24.63
2023-04-23T05:57:22.858Z,24.13
2023-04-23T05:59:51.975Z,23.47
2023-04-23T06:02:21.343Z,23.93
2023-04-23T06:04:50.450Z,25.97
2023-04-23T06:07:18.289Z,24.37
2023-04-23T06:09:45.999Z,25.53
2023-04-23T06:12:13.706Z,26.93
2023-04-23T06:14:41.736Z,28.03
2023-04-23T06:17:11.166Z,26.93
2023-04-23T06:19:38.946Z,27.20
2023-04-23T06:22:07.216Z,27.70
2023-04-23T06:24:35.014Z,25.57
2023-04-23T06:27:03.005Z,24.77
2023-04-23T06:29:30.834Z,25.53
2023-04-23T06:32:02.568Z,28.13
2023-04-23T06:34:31.696Z,29.47
2023-04-23T06:36:59.565Z,28.13
2023-04-23T06:39:27.274Z,26.43
2023-04-23T06:41:55.073Z,26.57
2023-04-23T06:44:22.929Z,25.90
2023-04-23T06:46:50.629Z,28.10
2023-04-23T06:49:18.904Z,27.27
2023-04-23T06:51:48.246Z,27.23
2023-04-23T06:54:16.010Z,26.10
2023-04-23T06:56:43.744Z,25.73
2023-04-23T06:59:13.899Z,25.93
2023-04-23T07:01:41.666Z,26.13
2023-04-23T07:04:09.558Z,25.50
2023-04-23T07:06:37.504Z,24.67
2023-04-23T07:09:07.197Z,25.67
2023-04-23T07:11:36.621Z,24.73
2023-04-23T07:14:04.898Z,26.03
2023-04-23T07:16:33.949Z,27.50
2023-04-23T07:19:02.431Z,25.50
2023-04-23T07:21:30.742Z,25.27
2023-04-23T07:23:59.663Z,26.07
2023-04-23T07:26:29.009Z,26.20
2023-04-23T07:28:57.010Z,26.13
2023-04-23T07:31:24.841Z,26.30
2023-04-23T07:33:52.605Z,27.20
2023-04-23T07:36:21.000Z,25.50
2023-04-23T07:38:49.053Z,26.40
2023-04-23T07:41:16.865Z,25.80
2023-04-23T07:43:46.189Z,25.03
2023-04-23T07:46:13.972Z,24.20
2023-04-23T07:48:41.724Z,25.93
2023-04-23T07:51:09.994Z,27.40
2023-04-23T07:53:37.805Z,25.90
2023-04-23T07:56:05.619Z,28.23
2023-04-23T07:58:34.988Z,29.67
2023-04-23T08:01:04.500Z,31.50
2023-04-23T08:03:32.440Z,28.83
2023-04-23T08:06:00.351Z,26.00
2023-04-23T08:08:28.278Z,24.50
2023-04-23T08:10:56.181Z,25.17
2023-04-23T08:13:23.945Z,24.53
2023-04-23T08:15:52.084Z,21.87
2023-04-23T08:18:21.346Z,22.73
2023-04-23T08:20:49.918Z,21.80
2023-04-23T08:23:18.139Z,22.50
2023-04-23T08:25:46.469Z,20.67
2023-04-23T08:28:14.290Z,21.63
2023-04-23T08:30:42.019Z,21.23
2023-04-23T08:33:09.852Z,20.33
2023-04-23T08:35:39.163Z,19.90
2023-04-23T08:38:06.996Z,21.03
2023-04-23T08:40:38.428Z,21.37
2023-04-23T08:43:14.188Z,21.70
2023-04-23T08:45:42.542Z,20.70
2023-04-23T08:48:11.889Z,17.77
2023-04-23T08:50:44.056Z,18.10
2023-04-23T08:53:12.605Z,17.70
2023-04-23T08:55:41.992Z,18.70
2023-04-23T08:58:09.978Z,17.70
2023-04-23T09:00:39.108Z,17.07
2023-04-23T09:03:07.479Z,16.30
2023-04-23T09:05:35.426Z,15.23
2023-04-23T09:08:04.550Z,14.33
2023-04-23T09:10:32.682Z,14.30
2023-04-23T09:13:00.667Z,15.07
2023-04-23T09:15:28.362Z,14.93
2023-04-23T09:17:57.407Z,15.23
2023-04-23T09:20:25.728Z,16.10
2023-04-23T09:22:53.776Z,12.87
2023-04-23T09:25:25.060Z,12.97
2023-04-23T09:27:53.987Z,12.93
2023-04-23T09:30:23.362Z,13.17
2023-04-23T09:32:56.988Z,13.70
2023-04-23T09:35:29.099Z,13.63
2023-04-23T09:37:56.965Z,14.10
2023-04-23T09:40:28.347Z,13.23
2023-04-23T09:42:56.263Z,12.67
2023-04-23T09:45:25.685Z,10.97
2023-04-23T09:47:54.804Z,13.87
2023-04-23T09:50:33.911Z,14.10
2023-04-23T09:53:01.821Z,13.73
2023-04-23T09:55:35.538Z,13.60
2023-04-23T09:58:04.974Z,11.80
2023-04-23T10:00:37.505Z,11.60
2023-04-23T10:03:06.859Z,12.00
2023-04-23T10:08:11.404Z,10.57
2023-04-23T10:13:12.966Z,10.10
2023-04-23T10:15:40.776Z,11.13
2023-04-23T10:18:09.167Z,8.53
2023-04-23T10:20:37.796Z,10.57
2023-04-23T10:23:07.199Z,9.77
2023-04-23T10:25:36.120Z,9.90
2023-04-23T10:28:08.249Z,10.27
2023-04-23T10:30:37.357Z,10.10
2023-04-23T10:33:13.112Z,9.57
2023-04-23T10:35:48.748Z,10.03
2023-04-23T10:38:17.247Z,9.83
2023-04-23T10:40:47.717Z,9.70
2023-04-23T10:43:17.261Z,9.17
2023-04-23T10:45:44.962Z,9.60
2023-04-23T10:48:12.698Z,8.90
2023-04-23T10:50:57.627Z,9.43
2023-04-23T10:53:32.917Z,9.03
2023-04-23T10:56:07.868Z,9.10
2023-04-23T10:58:51.997Z,8.33
2023-04-23T11:01:20.705Z,8.87
2023-04-23T11:03:48.900Z,8.90
2023-04-23T11:06:41.854Z,9.97
2023-04-23T11:09:31.486Z,8.20
2023-04-23T11:12:00.006Z,7.60
2023-04-23T11:14:46.908Z,7.77
2023-04-23T11:17:15.957Z,7.73
2023-04-23T11:20:10.997Z,7.13
2023-04-23T11:22:40.583Z,7.87
2023-04-23T11:25:11.184Z,6.00
2023-04-23T11:27:41.202Z,7.17
2023-04-23T11:30:15.170Z,7.00
2023-04-23T11:32:45.306Z,6.00
2023-04-23T11:35:14.951Z,6.13
2023-04-23T11:37:43.822Z,6.73
2023-04-23T11:40:19.765Z,6.37
2023-04-23T11:42:49.269Z,6.03
2023-04-23T11:45:19.384Z,5.27
2023-04-23T11:47:47.801Z,6.70
2023-04-23T11:50:19.442Z,6.70
2023-04-23T11:52:47.306Z,5.50
2023-04-23T11:55:15.664Z,6.50
2023-04-23T11:57:44.414Z,6.00
2023-04-23T12:00:19.061Z,5.90
2023-04-23T12:02:54.654Z,7.13
2023-04-23T12:05:23.436Z,6.40
2023-04-23T12:07:52.897Z,5.80
2023-04-23T12:10:21.737Z,5.80
2023-04-23T12:12:53.420Z,6.20
2023-04-23T12:15:22.731Z,5.57
2023-04-23T12:17:52.108Z,5.40
2023-04-23T12:20:21.146Z,4.73
2023-04-23T12:22:49.491Z,4.00
2023-04-23T12:25:17.187Z,3.30
2023-04-23T12:27:46.019Z,2.93
2023-04-23T12:30:14.601Z,4.23
2023-04-23T12:32:44.815Z,4.23
2023-04-23T12:35:12.628Z,4.30
2023-04-23T12:37:40.326Z,4.70
2023-04-23T12:40:09.150Z,4.10
2023-04-23T12:42:37.676Z,3.83
2023-04-23T12:45:10.819Z,4.13
2023-04-23T12:47:38.698Z,4.00
2023-04-23T12:50:09.035Z,3.57
2023-04-23T12:52:38.210Z,3.27
2023-04-23T12:55:06.726Z,3.17
2023-04-23T12:57:34.463Z,3.00
2023-04-23T13:00:03.040Z,2.30
2023-04-23T13:02:30.978Z,2.43
2023-04-23T13:05:01.020Z,2.03
2023-04-23T13:07:30.595Z,2.10
2023-04-23T13:09:59.565Z,1.93
2023-04-23T13:12:27.619Z,1.47
2023-04-23T13:14:55.381Z,1.80
2023-04-23T13:17:23.297Z,1.57
2023-04-23T13:19:51.310Z,1.83
2023-04-23T13:22:19.041Z,1.80
2023-04-23T13:24:48.114Z,1.57
2023-04-23T13:27:15.980Z,2.00
2023-04-23T13:29:43.931Z,1.33
2023-04-23T13:32:11.876Z,1.50
2023-04-23T13:34:39.809Z,1.60
2023-04-23T13:37:09.248Z,1.60
2023-04-23T13:39:39.963Z,1.83
2023-04-23T13:42:10.585Z,1.80
2023-04-23T13:44:38.491Z,2.30
2023-04-23T13:47:06.416Z,1.80
2023-04-23T13:49:34.190Z,1.53
2023-04-23T13:52:06.355Z,1.50
2023-04-23T13:54:35.470Z,1.40
2023-04-23T13:57:03.354Z,1.40
2023-04-23T13:59:32.420Z,0.90
2023-04-23T14:02:00.113Z,0.97
2023-04-23T14:04:28.086Z,0.90
2023-04-23T14:06:55.846Z,0.90
2023-04-23T14:09:23.587Z,1.10
2023-04-23T14:11:51.392Z,1.13
2023-04-23T14:14:19.252Z,0.90
2023-04-23T14:16:48.326Z,1.13
2023-04-23T14:19:16.125Z,0.97
2023-04-23T14:21:44.206Z,1.23
2023-04-23T14:24:23.116Z,1.10
2023-04-23T14:26:52.539Z,0.87
2023-04-23T14:29:33.058Z,1.03
2023-04-23T14:32:02.269Z,0.90
2023-04-23T14:34:30.215Z,0.87
2023-04-23T14:36:58.074Z,0.90
2023-04-23T14:39:26.861Z,0.93
2023-04-23T14:41:54.613Z,1.10
2023-04-23T14:44:23.384Z,1.10
2023-04-23T14:46:51.470Z,0.80
2023-04-23T14:49:20.907Z,1.10
2023-04-23T14:51:50.006Z,1.20
2023-04-23T14:54:17.809Z,1.20
2023-04-23T14:56:45.942Z,1.10
2023-04-23T14:59:13.947Z,1.50
2023-04-23T15:01:41.830Z,1.43
2023-04-23T15:04:11.640Z,1.40
2023-04-23T15:06:41.431Z,1.40
2023-04-23T15:09:09.206Z,1.73
2023-04-23T15:11:38.657Z,1.40
2023-04-23T15:14:09.310Z,1.60
2023-04-23T15:19:14.281Z,1.50
2023-04-23T15:21:43.406Z,1.70
2023-04-23T15:24:12.036Z,1.87
2023-04-23T15:26:40.024Z,1.50
2023-04-23T15:29:08.771Z,1.53
2023-04-23T15:31:37.086Z,1.70
2023-04-23T15:34:07.083Z,1.83
2023-04-23T15:36:35.420Z,1.60
2023-04-23T15:39:05.009Z,1.70
2023-04-23T15:41:32.784Z,1.67
2023-04-23T15:44:01.062Z,1.60
2023-04-23T15:46:28.730Z,1.50
2023-04-23T15:48:56.471Z,1.70
2023-04-23T15:51:24.220Z,1.37
2023-04-23T15:53:51.956Z,1.60
2023-04-23T15:56:21.029Z,1.50
2023-04-23T15:58:49.972Z,1.93
2023-04-23T16:01:18.145Z,1.77
2023-04-23T16:03:53.768Z,1.80
2023-04-23T16:06:33.631Z,1.83
2023-04-23T16:09:02.278Z,1.70
2023-04-23T16:11:31.452Z,1.80
2023-04-23T16:13:59.181Z,1.80
2023-04-23T16:16:26.956Z,2.10
2023-04-23T16:18:56.358Z,2.00
2023-04-23T16:21:25.575Z,1.80
2023-04-23T16:23:53.396Z,2.20
2023-04-23T16:26:21.278Z,2.57
2023-04-23T16:28:52.088Z,2.53
2023-04-23T16:31:28.810Z,2.10
2023-04-23T16:33:56.802Z,1.97
2023-04-23T16:36:24.580Z,2.00
2023-04-23T16:38:52.393Z,1.87
2023-04-23T16:41:20.161Z,2.23
2023-04-23T16:43:48.300Z,1.90
2023-04-23T16:46:17.691Z,1.87
2023-04-23T16:48:46.135Z,1.97
2023-04-23T16:51:14.150Z,1.67
2023-04-23T16:53:42.050Z,1.80
2023-04-23T16:56:09.895Z,2.10
2023-04-23T16:58:37.937Z,2.00
2023-04-23T17:01:05.767Z,1.93
2023-04-23T17:03:36.521Z,1.80
2023-04-23T17:06:12.882Z,1.80
2023-04-23T17:08:42.042Z,2.10
2023-04-23T17:11:09.815Z,1.73
2023-04-23T17:13:37.756Z,1.80
2023-04-23T17:16:05.577Z,2.00
2023-04-23T17:18:34.760Z,1.67
2023-04-23T17:21:02.690Z,2.17
2023-04-23T17:23:30.453Z,2.33
2023-04-23T17:25:58.217Z,2.50
2023-04-23T17:28:26.054Z,3.10
2023-04-23T17:30:55.860Z,3.00
2023-04-23T17:33:24.073Z,3.57
2023-04-23T17:35:55.281Z,3.57
2023-04-23T17:38:24.683Z,3.10
2023-04-23T17:40:53.493Z,2.90
2023-04-23T17:43:22.148Z,2.50
2023-04-23T17:45:50.018Z,2.47
2023-04-23T17:48:17.963Z,2.50
2023-04-23T17:50:46.985Z,2.53
2023-04-23T17:53:16.342Z,2.20
2023-04-23T17:55:44.472Z,2.53
2023-04-23T17:58:12.188Z,2.20
2023-04-23T18:00:43.166Z,2.20
2023-04-23T18:03:17.195Z,2.50
2023-04-23T18:05:45.989Z,2.23
2023-04-23T18:08:16.278Z,2.10
2023-04-23T18:10:46.954Z,2.47
2023-04-23T18:13:15.052Z,2.70
2023-04-23T18:15:43.443Z,2.40
2023-04-23T18:18:11.453Z,2.30
2023-04-23T18:20:41.236Z,2.70
2023-04-23T18:23:09.652Z,2.47
2023-04-23T18:25:37.825Z,2.80
2023-04-23T18:28:07.162Z,2.60
2023-04-23T18:30:35.177Z,2.47
2023-04-23T18:33:09.591Z,2.63
2023-04-23T18:35:37.613Z,3.00
2023-04-23T18:38:07.734Z,2.70
2023-04-23T18:40:35.598Z,2.67
2023-04-23T18:43:03.367Z,2.93
2023-04-23T18:45:32.517Z,2.77
2023-04-23T18:48:31.482Z,3.03
2023-04-23T18:50:59.573Z,3.00
2023-04-23T18:53:27.387Z,2.93
2023-04-23T18:55:55.119Z,3.03
2023-04-23T18:58:22.892Z,2.97
2023-04-23T19:00:52.036Z,2.43
2023-04-23T19:03:26.946Z,2.87
2023-04-23T19:05:55.265Z,3.00
2023-04-23T19:08:28.273Z,2.77
2023-04-23T19:10:56.054Z,2.60
2023-04-23T19:13:23.852Z,3.00
2023-04-23T19:15:53.111Z,2.90
2023-04-23T19:18:21.078Z,2.93
2023-04-23T19:20:48.837Z,2.80
2023-04-23T19:23:16.810Z,2.60
2023-04-23T19:25:44.605Z,2.60
2023-04-23T19:28:12.434Z,2.50
2023-04-23T19:30:40.231Z,2.40
2023-04-23T19:33:09.428Z,2.40
2023-04-23T19:35:40.042Z,2.37
2023-04-23T19:38:08.293Z,2.40
2023-04-23T19:40:36.151Z,2.17
2023-04-23T19:43:04.148Z,2.40
2023-04-23T19:45:32.401Z,2.30
2023-04-23T19:48:01.041Z,2.63
2023-04-23T19:50:30.566Z,3.30
2023-04-23T19:52:58.780Z,3.03
2023-04-23T19:55:27.354Z,2.87
2023-04-23T19:57:55.784Z,2.77
2023-04-23T20:00:24.179Z,2.70
2023-04-23T20:02:52.754Z,3.03
2023-04-23T20:05:21.973Z,2.60
2023-04-23T20:07:51.316Z,3.50
2023-04-23T20:10:19.437Z,3.40
2023-04-23T20:12:48.098Z,3.67
2023-04-23T20:15:16.179Z,3.10
2023-04-23T20:17:43.939Z,3.20
2023-04-23T20:20:13.159Z,3.03
2023-04-23T20:22:43.619Z,2.87
2023-04-23T20:25:13.438Z,2.60
2023-04-23T20:27:41.383Z,2.80
2023-04-23T20:30:11.950Z,3.23
2023-04-23T20:32:39.699Z,3.40
2023-04-23T20:35:09.311Z,2.77
2023-04-23T20:37:37.131Z,3.07
2023-04-23T20:40:08.145Z,3.00
2023-04-23T20:42:39.358Z,3.10
2023-04-23T20:45:09.439Z,2.83
2023-04-23T20:47:37.221Z,3.00
2023-04-23T20:50:06.371Z,3.33
2023-04-23T20:52:34.226Z,3.30
2023-04-23T20:55:02.095Z,3.33
2023-04-23T20:57:33.576Z,2.87
2023-04-23T21:00:04.423Z,3.97
2023-04-23T21:02:32.507Z,3.93
2023-04-23T21:05:00.755Z,3.70
2023-04-23T21:07:28.644Z,3.17
2023-04-23T21:09:56.953Z,3.93
2023-04-23T21:12:24.815Z,3.63
2023-04-23T21:14:52.604Z,4.97
2023-04-23T21:17:21.788Z,7.40
2023-04-23T21:19:49.547Z,6.83
2023-04-23T21:22:18.104Z,5.00
2023-04-23T21:24:45.904Z,4.30
2023-04-23T21:27:21.329Z,4.83
2023-04-23T21:29:49.374Z,5.27
2023-04-23T21:32:17.465Z,4.97
2023-04-23T21:34:46.650Z,5.23
2023-04-23T21:37:14.390Z,4.17
2023-04-23T21:39:42.340Z,4.70
2023-04-23T21:42:10.372Z,5.20
2023-04-23T21:44:38.297Z,5.80
2023-04-23T21:47:07.027Z,3.87
2023-04-23T21:49:34.919Z,3.53
2023-04-23T21:52:04.095Z,3.63
2023-04-23T21:54:31.876Z,3.00
2023-04-23T21:56:59.679Z,2.47
2023-04-23T21:59:27.463Z,2.00
2023-04-23T22:01:55.378Z,1.60
2023-04-23T22:04:23.192Z,1.57
2023-04-23T22:06:51.213Z,1.33
2023-04-23T22:09:20.436Z,1.47
2023-04-23T22:12:01.224Z,1.47
2023-04-23T22:14:29.906Z,2.10
2023-04-23T22:16:58.667Z,1.63
2023-04-23T22:19:26.778Z,1.63
2023-04-23T22:21:55.163Z,1.50
2023-04-23T22:24:24.819Z,1.37
2023-04-23T22:26:52.644Z,1.53
2023-04-23T22:29:20.436Z,1.40
2023-04-23T22:31:48.320Z,1.53
2023-04-23T22:34:16.173Z,1.53
2023-04-23T22:36:44.004Z,1.73
2023-04-23T22:39:12.508Z,1.30
2023-04-23T22:41:41.579Z,1.40
2023-04-23T22:44:09.577Z,1.53
2023-04-23T22:46:37.353Z,1.23
2023-04-23T22:49:08.057Z,1.60
2023-04-23T22:51:38.789Z,1.47
2023-04-23T22:54:06.642Z,1.60
2023-04-23T22:56:34.433Z,1.40
2023-04-23T22:59:04.948Z,1.40
2023-04-23T23:01:32.776Z,1.20
2023-04-23T23:04:00.804Z,1.37
2023-04-23T23:06:28.572Z,1.10
2023-04-23T23:08:56.437Z,1.20
2023-04-23T23:11:24.282Z,0.90
2023-04-23T23:13:52.802Z,1.00
2023-04-23T23:16:22.084Z,0.90
2023-04-23T23:18:50.052Z,0.90
2023-04-23T23:21:18.329Z,1.00
2023-04-23T23:23:46.054Z,0.80
2023-04-23T23:26:13.774Z,0.83
2023-04-23T23:28:41.529Z,0.80
2023-04-23T23:31:09.826Z,1.10
2023-04-23T23:33:39.602Z,0.90
2023-04-23T23:36:08.714Z,1.13
2023-04-23T23:38:36.444Z,0.70
2023-04-23T23:41:04.385Z,0.90
2023-04-23T23:43:32.140Z,0.73
2023-04-23T23:45:59.937Z,0.80
2023-04-23T23:48:27.876Z,0.70
2023-04-23T23:50:58.511Z,0.90
2023-04-23T23:53:26.593Z,0.90
2023-04-23T23:55:54.289Z,0.77
2023-04-23T23:58:22.042Z,0.90
